createdAt,value
2022-08-07T00:00:06.299Z,5.60
2022-08-07T00:04:01.823Z,6.38
2022-08-07T00:08:07.825Z,6.95
2022-08-07T00:12:09.258Z,6.75
2022-08-07T00:15:58.748Z,6.28
2022-08-07T00:20:00.690Z,6.60
2022-08-07T00:23:47.535Z,6.00
2022-08-07T00:27:56.402Z,5.50
2022-08-07T00:32:08.262Z,5.30
2022-08-07T00:39:59.174Z,5.45
2022-08-07T00:44:01.780Z,4.22
2022-08-07T00:48:07.744Z,4.60
2022-08-07T00:51:59.776Z,6.07
2022-08-07T00:56:03.082Z,4.32
2022-08-07T01:00:55.626Z,4.18
2022-08-07T01:05:03.499Z,4.38
2022-08-07T01:10:04.798Z,4.90
2022-08-07T01:13:29.274Z,4.68
2022-08-07T01:17:28.226Z,4.72
2022-08-07T01:21:22.806Z,4.05
2022-08-07T01:25:40.288Z,4.15
2022-08-07T01:29:33.828Z,4.18
2022-08-07T01:37:49.897Z,3.88
2022-08-07T01:42:01.691Z,3.42
2022-08-07T01:45:50.525Z,3.20
2022-08-07T01:49:53.680Z,3.78
2022-08-07T01:54:12.373Z,4.25
2022-08-07T01:58:27.265Z,4.55
2022-08-07T02:03:12.519Z,4.40
2022-08-07T02:06:44.711Z,4.20
2022-08-07T02:14:40.261Z,4.60
2022-08-07T02:18:34.822Z,3.92
2022-08-07T02:22:54.860Z,4.00
2022-08-07T02:26:37.740Z,4.43
2022-08-07T02:30:31.066Z,3.95
2022-08-07T02:34:17.374Z,3.90
2022-08-07T02:38:05.504Z,3.65
2022-08-07T02:42:02.516Z,3.75
2022-08-07T02:46:04.603Z,4.18
2022-08-07T02:49:57.628Z,3.72
2022-08-07T02:53:54.917Z,3.78
2022-08-07T02:57:48.287Z,4.78
2022-08-07T03:01:39.373Z,4.22
2022-08-07T03:05:37.126Z,4.13
2022-08-07T03:09:41.886Z,3.80
2022-08-07T03:13:29.847Z,4.13
2022-08-07T03:17:31.754Z,3.90
2022-08-07T03:21:51.906Z,3.70
2022-08-07T03:25:58.078Z,3.55
2022-08-07T03:29:56.018Z,3.92
2022-08-07T03:33:48.885Z,3.28
2022-08-07T03:37:37.382Z,2.85
2022-08-07T03:45:39.658Z,3.30
2022-08-07T03:49:52.677Z,3.70
2022-08-07T03:54:23.610Z,3.60
2022-08-07T03:58:32.394Z,3.00
2022-08-07T04:02:03.035Z,2.35
2022-08-07T04:05:59.876Z,3.80
2022-08-07T04:09:50.108Z,3.10
2022-08-07T04:18:57.735Z,2.97
2022-08-07T04:22:00.185Z,3.03
2022-08-07T04:25:55.575Z,3.58
2022-08-07T04:30:01.281Z,3.20
2022-08-07T04:33:54.932Z,3.60
2022-08-07T04:38:03.349Z,3.15
2022-08-07T04:41:53.192Z,2.78
2022-08-07T04:46:01.372Z,3.22
2022-08-07T04:50:08.088Z,3.28
2022-08-07T04:54:42.065Z,3.10
2022-08-07T04:59:17.793Z,2.85
2022-08-07T05:02:58.201Z,2.80
2022-08-07T05:07:25.115Z,3.20
2022-08-07T05:12:03.639Z,3.10
2022-08-07T05:15:55.210Z,2.92
2022-08-07T05:19:52.395Z,3.72
2022-08-07T05:23:42.771Z,3.08
2022-08-07T05:28:16.837Z,3.05
2022-08-07T05:31:47.556Z,3.17
2022-08-07T05:35:59.474Z,2.90
2022-08-07T05:40:06.030Z,3.05
2022-08-07T05:44:11.971Z,3.10
2022-08-07T05:48:17.859Z,3.13
2022-08-07T05:52:32.169Z,3.00
2022-08-07T05:56:30.236Z,3.20
2022-08-07T06:00:50.791Z,3.80
2022-08-07T06:04:56.340Z,2.85
2022-08-07T06:09:12.958Z,2.95
2022-08-07T06:18:55.752Z,2.38
2022-08-07T06:23:46.228Z,2.45
2022-08-07T06:31:16.250Z,2.50
2022-08-07T06:35:48.012Z,2.45
2022-08-07T06:40:29.853Z,2.25
2022-08-07T06:44:56.252Z,2.20
2022-08-07T06:49:14.860Z,1.90
2022-08-07T06:54:12.106Z,2.10
2022-08-07T06:57:43.622Z,2.00
2022-08-07T07:02:54.235Z,1.80
2022-08-07T07:06:26.598Z,1.70
2022-08-07T07:12:08.239Z,1.30
2022-08-07T07:16:01.730Z,1.20
2022-08-07T07:20:00.636Z,1.58
2022-08-07T07:29:39.627Z,1.50
2022-08-07T07:33:29.690Z,1.40
2022-08-07T07:38:02.069Z,1.05
2022-08-07T07:42:13.277Z,1.10
2022-08-07T07:46:40.125Z,1.25
2022-08-07T07:50:39.091Z,1.20
2022-08-07T08:00:00.680Z,1.20
2022-08-07T10:18:28.690Z,1.50
2022-08-07T11:10:09.019Z,1.15
2022-08-07T11:19:14.851Z,1.13
2022-08-07T11:49:51.444Z,1.20
2022-08-07T12:03:53.826Z,1.20
2022-08-07T12:48:27.722Z,1.30
2022-08-07T12:53:17.379Z,1.17
2022-08-07T12:58:11.658Z,1.10
2022-08-07T13:11:26.861Z,1.20
2022-08-07T13:30:41.413Z,1.00
2022-08-07T13:50:33.237Z,0.98
2022-08-07T13:55:26.213Z,1.00
2022-08-07T13:59:54.854Z,0.90
2022-08-07T14:08:00.123Z,0.80
2022-08-07T14:12:28.161Z,0.90
2022-08-07T14:35:08.848Z,1.02
2022-08-07T14:39:01.058Z,1.15
2022-08-07T14:43:55.645Z,1.20
2022-08-07T14:47:33.908Z,1.20
2022-08-07T14:52:04.226Z,1.23
2022-08-07T14:56:00.907Z,1.33
2022-08-07T15:03:55.915Z,1.20
2022-08-07T15:55:02.410Z,0.93
2022-08-07T17:16:30.068Z,1.00
2022-08-07T17:20:54.953Z,1.00
2022-08-07T17:25:47.209Z,1.00
2022-08-07T17:35:49.547Z,1.00
2022-08-07T17:40:30.490Z,0.90
2022-08-07T18:01:56.750Z,0.95
2022-08-07T18:06:57.897Z,1.00
2022-08-07T18:14:46.051Z,1.00
2022-08-07T18:23:05.257Z,1.20
2022-08-07T18:45:42.809Z,1.10
2022-08-07T18:59:47.631Z,1.10
2022-08-07T19:04:13.639Z,1.10
2022-08-07T19:13:22.593Z,1.40
2022-08-07T19:17:55.945Z,1.10
2022-08-07T19:22:11.207Z,1.20
2022-08-07T19:26:22.845Z,1.30
2022-08-07T19:30:58.092Z,1.30
2022-08-07T19:38:52.559Z,1.20
2022-08-07T19:43:00.415Z,1.30
2022-08-07T19:47:27.213Z,1.13
2022-08-07T19:55:11.784Z,1.25
2022-08-07T19:59:59.172Z,1.40
2022-08-07T20:03:57.218Z,1.98
2022-08-07T20:07:53.332Z,2.88
2022-08-07T20:16:57.698Z,2.17
2022-08-07T20:20:50.615Z,1.80
2022-08-07T20:29:48.431Z,1.60
2022-08-07T20:33:47.284Z,1.90
2022-08-07T20:37:55.771Z,1.63
2022-08-07T20:41:46.776Z,2.17
2022-08-07T20:46:27.745Z,1.90
2022-08-07T20:50:05.870Z,1.50
2022-08-07T20:54:36.001Z,1.40
2022-08-07T20:59:03.323Z,1.92
2022-08-07T21:03:29.222Z,1.98
2022-08-07T21:08:38.015Z,2.35
2022-08-07T21:12:28.827Z,2.08
2022-08-07T21:16:37.796Z,1.88
2022-08-07T21:21:14.011Z,1.92
2022-08-07T21:25:42.481Z,1.70
2022-08-07T21:30:46.478Z,1.70
2022-08-07T21:41:10.830Z,1.90
2022-08-07T21:54:10.385Z,1.98
2022-08-07T22:07:59.920Z,2.25
2022-08-07T22:11:53.118Z,1.80
2022-08-07T22:36:46.583Z,2.33
2022-08-07T23:00:36.964Z,2.60
2022-08-07T23:19:47.998Z,2.13
2022-08-07T23:25:28.526Z,2.20
2022-08-07T23:30:35.847Z,2.03
2022-08-07T23:38:54.434Z,1.88
2022-08-07T23:53:50.018Z,2.30
